Paia, HI

5:56 PM HST on November 28, 2014 (GMT -1000)
Lahaina | Change Station
CLOSE
Current Station
Airport
Location: Lahaina,
Elevation: 256 ft
Nearby Weather Stations
Active Advisory: High Surf Advisory

Elev 256 ft 20.96 °N, 156.67 °W | Updated 6 minutes ago

Scattered Clouds
Scattered Clouds
70 °F
Feels Like 70 °F
N
18
Wind Variable Wind from NE
Gusts 24 mph

Today
High -- | Low -- °F
--% Chance of Precip.
Yesterday
High -- | Low -- °F
Precip. -- in
6:44 AM 5:43 PM
Waxing Crescent, 47% visible
Pressure 30.00 in
Visibility 7.0 miles
Clouds Few 2000 ft
Few 3000 ft
Scattered Clouds 4000 ft
Dew Point 64 °F
Humidity 83%
Rainfall 0.00 in
Snow Depth Not available.
UV 0 out of 12
Pollen Not available.
Air Quality Not available.
Flu Activity Not available.
METAR PHJH 290350Z 05016G21KT 7SM VCSH FEW020 FEW030 SCT040 21/18 A3000 RMK VCSH E W LAST

More Conditions Fewer Conditions

Pressure 30.00 in
Visibility 7.0 miles
Clouds Few 2000 ft
Few 3000 ft
Scattered Clouds 4000 ft
Dew Point 64 °F
Humidity 83%
Rainfall 0.00 in
Snow Depth Not available.
UV 0 out of 12
Pollen Not available.
Air Quality Not available.
Flu Activity Not available.
METAR PHJH 290350Z 05016G21KT 7SM VCSH FEW020 FEW030 SCT040 21/18 A3000 RMK VCSH E W LAST

More Conditions Fewer Conditions

10-Day Weather Forecast

Almanac

Astronomy

Nov. 28, 2014 Rise Set
Actual Time
Civil Twilight
Nautical Twilight
Astronomical Twilight
Moon
Length of Visible Light
Length of Day
Tomorrow will be .
, % of the Moon is Illuminated

Today's Extremes

State Highs State Lows

Community

WunderPhotos

Upload Photos

1,774,389 photos uploaded!

WunderBlogs® & News

Nearby

Air Quality

  Air Quality AQ Index Pollutant
Not available.

Snow Depth

Station Depth Elevation

Earthquake Activity

City Distance Mag. Time & Date
Minimum magnitude displayed is 2.5.

Coastal Water Temperatures

Place Temperature

Nearby Weather Stations